OMAD/AZI METAR and TAF weather

Enter ICAO airport designator
Station Type Date Time Source
OMAD METAR 2020/04/05 23:00 UTC NOAA

OMAD 052300Z VRB02KT CAVOK 25/18 Q1012 NOSIG


Station Type Date Time Source
OMAD Decoded METAR 2020/04/05 23:00 UTC NOAA

Abu Dhabi Bateen Airport, United Arab Emirates (OMAD) 24-26N 054-28E 3M
Apr 05, 2020 - 07:00 PM EDT / 2020.04.05 2300 UTC
Wind: Variable at 2 MPH (2 KT):0
Visibility: greater than 7 mile(s):0
Temperature: 77 F (25 C)
Dew Point: 64 F (18 C)
Relative Humidity: 65%
Pressure (altimeter): 29.88 in. Hg (1012 hPa)
ob: OMAD 052300Z VRB02KT CAVOK 25/18 Q1012 NOSIG
cycle: 23

Station Type Date Time Source
OMAD TAF 2020/04/05 18:00 UTC NOAA

TAF OMAD 051700Z 0518/0700 27005KT 8000 NSC
BECMG 0520/0522 21005KT
BECMG 0603/0605 31012KT
BECMG 0617/0619 22005KT

Example: see airport list